Time;durP1;ratioP1;P1;durP2;ratioP2;P2;SDS_P1;SDS_P2;PMS_P1;PMS_P2;Temp;Humidity;BMP_temperature;BMP_pressure;BME280_temperature;BME280_humidity;BME280_pressure;Samples;Min_cycle;Max_cycle;Signal;HPM_P1;HPM_P2
2020/12/19 00:01:32;;;;;;;4.53;1.80;;;5.80;96.30;;;;;;3622225;39;20113;-69
2020/12/19 00:03:58;;;;;;;3.25;1.60;;;5.80;96.50;;;;;;3735269;31;20121;-69
2020/12/19 00:06:23;;;;;;;6.50;2.28;;;5.80;96.30;;;;;;3752101;31;20122;-69
2020/12/19 00:08:49;;;;;;;3.13;1.50;;;5.90;96.30;;;;;;3624493;39;20128;-69
2020/12/19 00:11:15;;;;;;;2.60;1.50;;;5.80;96.30;;;;;;3623973;39;20548;-69
2020/12/19 00:13:42;;;;;;;3.92;1.55;;;5.80;96.20;;;;;;3677710;31;20308;-69
2020/12/19 00:16:08;;;;;;;3.58;1.60;;;5.80;96.20;;;;;;3779398;31;20153;-70
2020/12/19 00:18:34;;;;;;;6.35;2.22;;;5.80;96.20;;;;;;3925008;31;20227;-70
2020/12/19 00:21:00;;;;;;;3.42;1.80;;;5.80;96.30;;;;;;3614170;39;20125;-69
2020/12/19 00:23:25;;;;;;;4.32;1.90;;;5.80;96.30;;;;;;3624150;39;20126;-71
2020/12/19 00:25:51;;;;;;;2.45;1.45;;;5.80;96.30;;;;;;3623659;39;20170;-69
2020/12/19 00:28:17;;;;;;;4.90;1.38;;;5.80;96.30;;;;;;3623755;39;20125;-70
2020/12/19 00:30:42;;;;;;;2.70;1.50;;;5.70;96.20;;;;;;3623551;39;20113;-69
2020/12/19 00:33:08;;;;;;;3.67;1.75;;;5.80;96.20;;;;;;3623544;39;20106;-70
2020/12/19 00:35:34;;;;;;;3.63;1.52;;;5.80;96.20;;;;;;3623300;39;20113;-70
2020/12/19 00:37:59;;;;;;;3.45;1.70;;;5.80;96.30;;;;;;3623522;39;20133;-70
2020/12/19 00:40:25;;;;;;;2.53;1.50;;;5.80;96.30;;;;;;3623509;39;20605;-70
2020/12/19 00:42:51;;;;;;;4.28;2.05;;;5.70;96.20;;;;;;3623263;39;20105;-70
2020/12/19 00:45:16;;;;;;;2.80;1.50;;;5.70;96.30;;;;;;3623418;39;20113;-69
2020/12/19 00:47:42;;;;;;;3.92;1.92;;;5.70;96.30;;;;;;3623426;39;20124;-70
2020/12/19 00:50:09;;;;;;;3.28;1.40;;;5.70;96.30;;;;;;3623219;39;20188;-71
2020/12/19 00:52:35;;;;;;;2.85;1.55;;;5.70;96.30;;;;;;3706386;31;20164;-70
2020/12/19 00:55:01;;;;;;;3.03;1.52;;;5.70;96.30;;;;;;3722921;31;20503;-71
2020/12/19 00:57:31;;;;;;;3.13;1.52;;;5.70;96.30;;;;;;3738933;31;20113;-70
2020/12/19 00:59:57;;;;;;;2.97;1.60;;;5.70;96.30;;;;;;3740619;31;20579;-70
2020/12/19 01:02:23;;;;;;;4.35;1.83;;;5.70;96.30;;;;;;3711083;31;20121;-70
2020/12/19 01:04:49;;;;;;;3.53;1.60;;;5.70;96.30;;;;;;3623337;39;20102;-70
2020/12/19 01:07:15;;;;;;;3.35;1.65;;;5.70;96.20;;;;;;3623435;39;20102;-70
2020/12/19 01:09:41;;;;;;;3.20;1.48;;;5.70;96.20;;;;;;3623160;39;20106;-70
2020/12/19 01:12:06;;;;;;;3.50;1.70;;;5.70;96.30;;;;;;3623256;39;20114;-70
2020/12/19 01:14:33;;;;;;;4.25;1.77;;;5.60;96.20;;;;;;3623369;39;20421;-70
2020/12/19 01:17:02;;;;;;;5.43;2.35;;;5.60;96.20;;;;;;3677237;32;20700;-69
2020/12/19 01:19:28;;;;;;;3.05;1.50;;;5.60;96.20;;;;;;3689848;31;20226;-70
2020/12/19 01:21:54;;;;;;;3.58;1.63;;;5.60;96.20;;;;;;3623257;39;20117;-69
2020/12/19 01:24:19;;;;;;;2.67;1.25;;;5.50;96.20;;;;;;3622670;39;20162;-68
2020/12/19 01:26:47;;;;;;;2.78;1.50;;;5.60;96.30;;;;;;3623082;39;20110;-69
2020/12/19 01:29:13;;;;;;;3.45;1.58;;;5.50;96.20;;;;;;3660067;32;20106;-69
2020/12/19 01:31:38;;;;;;;3.72;1.63;;;5.50;96.20;;;;;;3623061;39;20534;-69
2020/12/19 01:34:04;;;;;;;4.50;2.13;;;5.50;96.20;;;;;;3622574;39;20178;-69
2020/12/19 01:36:30;;;;;;;3.72;1.60;;;5.50;96.20;;;;;;3623192;39;20114;-70
2020/12/19 01:38:56;;;;;;;5.18;2.30;;;5.50;96.20;;;;;;3622884;39;20121;-69
2020/12/19 01:41:22;;;;;;;3.42;1.73;;;5.50;96.30;;;;;;3622904;39;20146;-69
2020/12/19 01:43:53;;;;;;;4.20;1.65;;;5.50;96.30;;;;;;3907523;31;20112;-69
2020/12/19 01:46:52;;;;;;;4.05;1.70;;;5.60;96.30;;;;;;3811855;31;20126;-69
2020/12/19 01:49:18;;;;;;;2.63;1.50;;;5.50;96.30;;;;;;4024672;31;20105;-68
2020/12/19 01:51:47;;;;;;;3.17;1.50;;;5.50;96.30;;;;;;3793076;31;20118;-70
2020/12/19 01:54:13;;;;;;;4.72;1.63;;;5.50;96.50;;;;;;3661602;32;20222;-70
2020/12/19 01:56:54;;;;;;;3.40;1.65;;;5.50;96.30;;;;;;3686524;31;20172;-69
2020/12/19 01:59:22;;;;;;;5.78;2.05;;;5.50;96.30;;;;;;3725212;31;20138;-68
2020/12/19 02:01:50;;;;;;;3.47;1.50;;;5.50;96.30;;;;;;3735762;31;20571;-70
2020/12/19 02:04:17;;;;;;;3.42;1.50;;;5.40;96.30;;;;;;3744902;31;20106;-69
2020/12/19 02:06:47;;;;;;;5.20;1.92;;;5.50;96.30;;;;;;3712590;31;20117;-69
2020/12/19 02:09:14;;;;;;;3.17;1.73;;;5.50;96.30;;;;;;3667488;31;20098;-69
2020/12/19 02:11:42;;;;;;;3.17;1.45;;;5.40;96.20;;;;;;3768072;31;20198;-68
2020/12/19 02:14:09;;;;;;;3.67;1.80;;;5.40;96.30;;;;;;3733918;31;20116;-69
2020/12/19 02:16:36;;;;;;;4.40;2.08;;;5.40;96.30;;;;;;3704265;31;20114;-69
2020/12/19 02:19:12;;;;;;;4.18;1.77;;;5.40;96.20;;;;;;3675945;31;20113;-69
2020/12/19 02:21:39;;;;;;;3.35;1.40;;;5.40;96.30;;;;;;3778309;31;20127;-69
2020/12/19 02:24:05;;;;;;;3.45;1.50;;;5.40;96.20;;;;;;3790468;31;20089;-70
2020/12/19 02:26:31;;;;;;;3.30;1.30;;;5.40;96.20;;;;;;3678160;31;20130;-69
2020/12/19 02:28:56;;;;;;;3.92;1.60;;;5.40;96.20;;;;;;3622583;39;20126;-70
2020/12/19 02:31:22;;;;;;;3.30;1.40;;;5.40;96.30;;;;;;3621948;39;20116;-70
2020/12/19 02:33:48;;;;;;;2.75;1.63;;;5.40;96.20;;;;;;3612949;39;20204;-69
2020/12/19 02:36:13;;;;;;;4.07;1.55;;;5.30;96.20;;;;;;3622670;39;20137;-70
2020/12/19 02:38:39;;;;;;;4.47;2.10;;;5.30;96.30;;;;;;3622544;39;20142;-70
2020/12/19 02:41:05;;;;;;;4.53;1.92;;;5.30;96.30;;;;;;3622135;39;20871;-70
2020/12/19 02:43:30;;;;;;;5.50;2.40;;;5.30;96.30;;;;;;3622388;39;20177;-71
2020/12/19 02:45:58;;;;;;;3.17;1.50;;;5.30;96.30;;;;;;3621921;39;20537;-70
2020/12/19 02:48:27;;;;;;;4.97;2.10;;;5.30;96.30;;;;;;3708154;31;20129;-70
2020/12/19 02:50:53;;;;;;;3.50;1.65;;;5.30;96.30;;;;;;3713885;31;20138;-71
2020/12/19 02:53:18;;;;;;;3.17;1.45;;;5.30;96.30;;;;;;3612877;39;20507;-70
2020/12/19 02:55:44;;;;;;;3.88;1.80;;;5.30;96.30;;;;;;3622375;39;20314;-70
2020/12/19 02:58:28;;;;;;;6.00;2.50;;;5.30;96.30;;;;;;3622487;39;20196;-74
2020/12/19 03:00:54;;;;;;;5.10;1.83;;;5.30;96.30;;;;;;3782052;32;20518;-69
2020/12/19 03:03:20;;;;;;;2.60;1.30;;;5.40;96.30;;;;;;3622256;39;20386;-69
2020/12/19 03:05:46;;;;;;;4.15;1.75;;;5.30;96.30;;;;;;3621765;39;20120;-69
2020/12/19 03:08:11;;;;;;;3.88;1.60;;;5.30;96.30;;;;;;3622593;39;20106;-69
2020/12/19 03:10:37;;;;;;;4.80;1.90;;;5.30;96.30;;;;;;3622327;39;20120;-69
2020/12/19 03:13:02;;;;;;;3.38;1.75;;;5.30;96.30;;;;;;3622391;39;20121;-69
2020/12/19 03:15:28;;;;;;;5.97;2.22;;;5.30;96.30;;;;;;3622307;39;20120;-69
2020/12/19 03:17:54;;;;;;;3.03;1.65;;;5.30;96.30;;;;;;3622396;39;20483;-69
2020/12/19 03:20:20;;;;;;;4.68;1.95;;;5.30;96.30;;;;;;3622380;39;20175;-69
2020/12/19 03:22:45;;;;;;;3.55;1.67;;;5.30;96.30;;;;;;3622250;39;20565;-69
2020/12/19 03:25:11;;;;;;;3.85;1.60;;;5.30;96.30;;;;;;3622045;39;20105;-69
2020/12/19 03:27:37;;;;;;;3.67;1.42;;;5.30;96.30;;;;;;3622325;39;20120;-69
2020/12/19 03:30:04;;;;;;;5.95;2.10;;;5.30;96.20;;;;;;3612390;39;20094;-70
2020/12/19 03:32:30;;;;;;;5.05;1.88;;;5.30;96.20;;;;;;3768027;31;20559;-69
2020/12/19 03:34:56;;;;;;;2.75;1.25;;;5.20;96.20;;;;;;3622358;39;20113;-69
2020/12/19 03:37:21;;;;;;;3.28;1.75;;;5.20;96.20;;;;;;3622253;39;20515;-69
2020/12/19 03:39:47;;;;;;;4.47;1.73;;;5.20;96.20;;;;;;3622163;39;20191;-69
2020/12/19 03:42:13;;;;;;;6.05;2.20;;;5.20;96.30;;;;;;3622080;39;20113;-69
2020/12/19 03:44:39;;;;;;;5.35;2.17;;;5.20;96.30;;;;;;3612566;39;20113;-69
2020/12/19 03:47:04;;;;;;;4.88;2.00;;;5.20;96.30;;;;;;3622047;39;20137;-69
2020/12/19 03:49:30;;;;;;;3.67;1.70;;;5.20;96.30;;;;;;3612334;39;20550;-69
2020/12/19 03:51:56;;;;;;;4.82;1.77;;;5.30;96.30;;;;;;3622102;39;20110;-69
2020/12/19 03:54:21;;;;;;;3.15;1.67;;;5.20;96.30;;;;;;3622139;39;20109;-69
2020/12/19 03:56:47;;;;;;;6.38;1.95;;;5.30;96.30;;;;;;3621899;39;20102;-69
2020/12/19 03:59:13;;;;;;;2.42;1.35;;;5.20;96.30;;;;;;3621914;39;20179;-69
2020/12/19 04:01:39;;;;;;;3.83;1.70;;;5.20;96.30;;;;;;3622025;39;20121;-69
2020/12/19 04:04:05;;;;;;;4.97;1.80;;;5.30;96.30;;;;;;3612101;39;20657;-69
2020/12/19 04:06:31;;;;;;;4.35;1.90;;;5.20;96.20;;;;;;3711411;32;20110;-70
2020/12/19 04:08:57;;;;;;;3.40;1.67;;;5.20;96.20;;;;;;3621806;39;20125;-69
2020/12/19 04:11:22;;;;;;;4.78;1.98;;;5.20;96.30;;;;;;3670201;31;20175;-69
2020/12/19 04:13:48;;;;;;;3.17;1.50;;;5.20;96.30;;;;;;3622277;39;20190;-70
2020/12/19 04:16:14;;;;;;;3.78;1.60;;;5.20;96.30;;;;;;3621935;39;20559;-69
2020/12/19 04:18:40;;;;;;;5.63;2.47;;;5.20;96.30;;;;;;3621852;39;20121;-69
2020/12/19 04:21:07;;;;;;;4.97;2.13;;;5.20;96.30;;;;;;3612188;39;20550;-69
2020/12/19 04:23:34;;;;;;;5.70;2.08;;;5.20;96.30;;;;;;3712989;31;20176;-68
2020/12/19 04:26:00;;;;;;;4.20;1.80;;;5.20;96.30;;;;;;3725583;31;20153;-69
2020/12/19 04:28:27;;;;;;;3.63;1.60;;;5.20;96.30;;;;;;3742068;31;20121;-70
2020/12/19 04:30:52;;;;;;;5.35;1.92;;;5.20;96.30;;;;;;3886307;31;20150;-69
2020/12/19 04:33:18;;;;;;;4.03;1.77;;;5.20;96.30;;;;;;3621569;39;20164;-69
2020/12/19 04:35:44;;;;;;;4.47;1.90;;;5.20;96.30;;;;;;3621802;39;20232;-70
2020/12/19 04:38:09;;;;;;;4.72;1.90;;;5.20;96.30;;;;;;3621754;39;20114;-70
2020/12/19 04:40:36;;;;;;;6.97;1.98;;;5.20;96.30;;;;;;3621745;39;20597;-68
2020/12/19 04:43:14;;;;;;;5.55;1.92;;;5.20;96.30;;;;;;3718368;31;20122;-70
2020/12/19 04:45:41;;;;;;;4.70;1.70;;;5.20;96.30;;;;;;3680661;31;20102;-69
2020/12/19 04:48:07;;;;;;;3.80;1.52;;;5.20;96.30;;;;;;3736698;31;20239;-68
2020/12/19 04:50:37;;;;;;;3.72;1.50;;;5.10;96.20;;;;;;3753631;31;20202;-68
2020/12/19 04:53:13;;;;;;;4.65;2.00;;;5.20;96.30;;;;;;3883382;31;20133;-68
2020/12/19 04:55:39;;;;;;;3.88;1.50;;;5.10;96.30;;;;;;3862065;31;20145;-69
2020/12/19 04:58:07;;;;;;;2.90;1.60;;;5.10;96.20;;;;;;3703793;31;20194;-68
2020/12/19 05:00:33;;;;;;;2.95;1.40;;;5.10;96.20;;;;;;3711768;31;20547;-69
2020/12/19 05:02:59;;;;;;;3.47;1.35;;;5.10;96.30;;;;;;3623531;39;20110;-68
2020/12/19 05:05:24;;;;;;;4.63;1.90;;;5.20;96.30;;;;;;3623392;39;20109;-68
2020/12/19 05:07:50;;;;;;;3.17;1.55;;;5.10;96.30;;;;;;3613783;39;20102;-68
2020/12/19 05:10:16;;;;;;;4.72;1.90;;;5.10;96.30;;;;;;3623458;39;20127;-68
2020/12/19 05:12:41;;;;;;;3.75;1.63;;;5.10;96.30;;;;;;3623474;39;20245;-69
2020/12/19 05:15:07;;;;;;;4.85;1.95;;;5.20;96.30;;;;;;3623289;39;20605;-69
2020/12/19 05:17:33;;;;;;;3.38;1.40;;;5.10;96.30;;;;;;3623351;39;20189;-69
2020/12/19 05:20:00;;;;;;;2.88;1.50;;;5.10;96.30;;;;;;3623278;39;20190;-69
2020/12/19 05:22:25;;;;;;;3.92;1.80;;;5.10;96.30;;;;;;3702388;31;20494;-69
2020/12/19 05:24:52;;;;;;;3.00;1.63;;;5.20;96.30;;;;;;3623150;39;20106;-69
2020/12/19 05:27:18;;;;;;;3.97;1.45;;;5.10;96.30;;;;;;3736666;31;20202;-71
2020/12/19 05:29:44;;;;;;;2.40;1.42;;;5.10;96.30;;;;;;3795418;31;20102;-69
2020/12/19 05:32:11;;;;;;;4.28;1.80;;;5.20;96.30;;;;;;3613465;39;20118;-69
2020/12/19 05:34:38;;;;;;;5.47;1.88;;;5.10;96.30;;;;;;3696432;31;20102;-69
2020/12/19 05:37:05;;;;;;;4.13;1.50;;;5.20;96.30;;;;;;3711208;31;20128;-69
2020/12/19 05:39:31;;;;;;;4.90;2.00;;;5.10;96.30;;;;;;3721289;31;20109;-69
2020/12/19 05:41:56;;;;;;;5.13;1.77;;;5.10;96.30;;;;;;3623128;39;20113;-69
2020/12/19 05:44:23;;;;;;;5.00;1.90;;;5.20;96.30;;;;;;3623109;39;20694;-69
2020/12/19 05:46:49;;;;;;;3.40;1.42;;;5.20;96.30;;;;;;3704698;31;20487;-69
2020/12/19 05:49:16;;;;;;;4.28;1.65;;;5.10;96.30;;;;;;3789701;31;20448;-69
2020/12/19 05:51:43;;;;;;;3.67;1.52;;;5.20;96.30;;;;;;3674471;31;20488;-69
2020/12/19 05:54:11;;;;;;;2.88;1.30;;;5.10;96.20;;;;;;3731290;31;20456;-68
2020/12/19 05:56:43;;;;;;;4.55;1.63;;;5.20;96.30;;;;;;3740657;31;20125;-69
2020/12/19 05:59:11;;;;;;;5.13;1.88;;;5.20;96.30;;;;;;3731259;31;20190;-70
2020/12/19 06:01:40;;;;;;;5.20;2.03;;;5.20;96.30;;;;;;3739290;31;20134;-70
2020/12/19 06:04:08;;;;;;;5.13;1.90;;;5.20;96.30;;;;;;3743685;31;20118;-69
2020/12/19 06:06:37;;;;;;;5.60;2.17;;;5.20;96.30;;;;;;3752264;31;20691;-70
2020/12/19 06:09:04;;;;;;;3.67;1.60;;;5.20;96.30;;;;;;3755030;31;20114;-69
2020/12/19 06:11:38;;;;;;;3.70;1.60;;;5.20;96.30;;;;;;3770827;31;20178;-69
2020/12/19 06:14:08;;;;;;;4.28;1.85;;;5.20;96.30;;;;;;3751817;31;20117;-69
2020/12/19 06:16:39;;;;;;;3.22;1.38;;;5.20;96.30;;;;;;3751981;31;20157;-69
2020/12/19 06:19:22;;;;;;;3.20;1.63;;;5.20;96.30;;;;;;3746344;31;20134;-69
2020/12/19 06:21:50;;;;;;;3.90;1.83;;;5.10;96.20;;;;;;3691069;31;20519;-70
2020/12/19 06:24:39;;;;;;;4.50;2.05;;;5.20;96.30;;;;;;3774356;32;20093;-70
2020/12/19 06:27:11;;;;;;;2.97;1.25;;;5.20;96.30;;;;;;3636146;31;20170;-70
2020/12/19 06:29:38;;;;;;;3.08;1.42;;;5.20;96.30;;;;;;3694716;31;20117;-70
2020/12/19 06:32:05;;;;;;;3.35;1.60;;;5.20;96.30;;;;;;3710081;31;20181;-70
2020/12/19 06:34:30;;;;;;;2.67;1.48;;;5.20;96.30;;;;;;3723156;31;20574;-70
2020/12/19 06:36:56;;;;;;;4.60;1.88;;;5.20;96.30;;;;;;3622757;39;20170;-70
2020/12/19 06:39:22;;;;;;;3.78;1.70;;;5.10;96.20;;;;;;3888390;31;20138;-70
2020/12/19 06:41:55;;;;;;;4.30;1.90;;;5.20;96.30;;;;;;3905193;31;20110;-70
2020/12/19 06:44:36;;;;;;;5.20;2.17;;;5.10;96.50;;;;;;3894658;31;20526;-70
2020/12/19 06:47:17;;;;;;;5.97;2.17;;;5.10;96.20;;;;;;3655040;31;20176;-69
2020/12/19 06:49:51;;;;;;;3.33;1.48;;;5.20;96.30;;;;;;3670107;31;20621;-75
2020/12/19 06:52:21;;;;;;;2.17;1.42;;;5.20;96.30;;;;;;3783121;31;20121;-71
2020/12/19 06:54:48;;;;;;;2.60;1.35;;;5.20;96.20;;;;;;3740127;31;20134;-69
2020/12/19 06:57:31;;;;;;;3.75;1.70;;;5.20;96.20;;;;;;3750843;31;20121;-68
2020/12/19 07:00:18;;;;;;;3.10;1.33;;;5.20;96.30;;;;;;3697509;31;20124;-70
2020/12/19 07:03:00;;;;;;;3.20;1.38;;;5.20;96.30;;;;;;3752097;31;20113;-70
2020/12/19 07:05:29;;;;;;;2.30;1.13;;;5.20;96.30;;;;;;3698263;31;20181;-70
2020/12/19 07:08:16;;;;;;;4.25;1.55;;;5.20;96.30;;;;;;3704685;31;20122;-68
2020/12/19 07:10:41;;;;;;;5.40;1.98;;;5.10;96.20;;;;;;3751791;32;20150;-69
2020/12/19 07:13:07;;;;;;;4.47;1.90;;;5.20;96.30;;;;;;3622380;39;20109;-69
2020/12/19 07:15:49;;;;;;;4.93;1.73;;;5.20;96.30;;;;;;3622273;39;20102;-69
2020/12/19 07:18:32;;;;;;;4.25;1.88;;;5.30;96.30;;;;;;3612725;39;20117;-69
2020/12/19 07:21:04;;;;;;;2.72;1.25;;;5.30;96.30;;;;;;3689774;31;20115;-69
2020/12/19 07:23:32;;;;;;;;;;;5.30;96.30;;;;;;3769083;31;20869;-69
2020/12/19 07:25:59;;;;;;;2.83;1.50;;;5.30;96.30;;;;;;3905606;31;19998;-69
2020/12/19 07:28:25;;;;;;;2.45;1.10;;;5.30;96.20;;;;;;3921319;31;20124;-69
2020/12/19 07:30:50;;;;;;;3.33;1.48;;;5.30;96.20;;;;;;3622231;39;20101;-69
2020/12/19 07:33:17;;;;;;;5.45;2.20;;;5.30;96.20;;;;;;3612371;39;20198;-69
2020/12/19 07:35:43;;;;;;;2.45;1.30;;;5.40;96.20;;;;;;3712018;31;20109;-69
2020/12/19 07:38:09;;;;;;;2.92;1.45;;;5.30;96.20;;;;;;3622310;39;20194;-70
2020/12/19 07:40:35;;;;;;;3.20;1.42;;;5.30;96.20;;;;;;3622370;39;20126;-70
2020/12/19 07:43:04;;;;;;;4.53;1.90;;;5.40;96.20;;;;;;3766454;31;20585;-69
2020/12/19 07:45:29;;;;;;;3.88;1.90;;;5.30;96.20;;;;;;3770412;31;20133;-69
2020/12/19 07:47:55;;;;;;;4.25;2.08;;;5.30;96.20;;;;;;3612523;39;20161;-70
2020/12/19 07:50:28;;;;;;;4.05;1.73;;;5.30;96.20;;;;;;3622213;39;20424;-70
2020/12/19 07:53:07;;;;;;;3.22;1.50;;;5.30;96.20;;;;;;3882537;31;20198;-69
2020/12/19 07:55:34;;;;;;;4.85;1.63;;;5.30;96.20;;;;;;3710882;31;20193;-69
2020/12/19 07:58:02;;;;;;;3.85;1.73;;;5.30;96.20;;;;;;3722965;31;20114;-70
2020/12/19 08:00:29;;;;;;;4.63;2.05;;;5.20;96.20;;;;;;3733149;31;20114;-69
2020/12/19 08:02:55;;;;;;;4.15;1.92;;;5.30;96.20;;;;;;3745605;31;20139;-69
2020/12/19 08:05:21;;;;;;;5.03;1.92;;;5.40;96.30;;;;;;3622032;39;20182;-69
2020/12/19 08:07:52;;;;;;;2.85;1.50;;;5.50;96.30;;;;;;3780079;31;20117;-69
2020/12/19 08:10:18;;;;;;;3.85;1.80;;;5.40;96.30;;;;;;3779062;31;20110;-69
2020/12/19 08:12:43;;;;;;;2.83;1.52;;;5.50;96.30;;;;;;3622123;39;20145;-69
2020/12/19 08:15:12;;;;;;;4.13;1.80;;;5.50;96.20;;;;;;3612160;39;20164;-69
2020/12/19 08:17:50;;;;;;;3.22;1.60;;;5.50;96.30;;;;;;3692398;31;20162;-69
2020/12/19 08:20:19;;;;;;;4.85;2.40;;;5.60;96.30;;;;;;3787141;31;20101;-69
2020/12/19 08:22:47;;;;;;;4.70;2.05;;;5.60;96.30;;;;;;3788853;31;20125;-69
2020/12/19 08:25:13;;;;;;;4.85;2.10;;;5.70;96.30;;;;;;3660820;32;20125;-70
2020/12/19 08:27:43;;;;;;;3.85;1.90;;;5.70;96.20;;;;;;3687705;31;20157;-69
2020/12/19 08:30:14;;;;;;;3.85;1.90;;;5.70;96.20;;;;;;3688739;31;20169;-69
2020/12/19 08:32:42;;;;;;;3.55;1.70;;;5.80;96.20;;;;;;3771602;31;20161;-70
2020/12/19 08:35:08;;;;;;;5.32;2.50;;;5.80;96.20;;;;;;3766544;32;20110;-69
2020/12/19 08:37:35;;;;;;;5.22;2.05;;;5.90;96.20;;;;;;3623807;39;20128;-69
2020/12/19 08:40:10;;;;;;;4.18;1.85;;;6.00;96.20;;;;;;3681514;31;20109;-69
2020/12/19 08:42:38;;;;;;;4.63;2.28;;;6.00;96.20;;;;;;3788036;31;20137;-69
2020/12/19 08:45:23;;;;;;;4.15;2.00;;;6.10;96.20;;;;;;3796079;31;20109;-71
2020/12/19 08:47:52;;;;;;;3.47;1.75;;;6.20;96.10;;;;;;3729890;31;20133;-69
2020/12/19 08:50:22;;;;;;;5.47;2.60;;;6.20;96.10;;;;;;3735702;31;20230;-69
2020/12/19 08:52:48;;;;;;;4.63;1.63;;;6.20;96.10;;;;;;3736719;31;20118;-69
2020/12/19 08:55:13;;;;;;;3.40;1.65;;;6.40;96.10;;;;;;3623595;39;20125;-70
2020/12/19 08:57:42;;;;;;;3.50;1.73;;;6.30;96.10;;;;;;3623405;39;20441;-69
2020/12/19 09:00:10;;;;;;;2.80;1.38;;;6.40;96.10;;;;;;3778068;31;20141;-69
2020/12/19 09:02:42;;;;;;;4.00;1.92;;;6.30;96.00;;;;;;3788067;31;20126;-69
2020/12/19 09:05:08;;;;;;;;;;;6.50;96.10;;;;;;3770181;32;20110;-70
2020/12/19 09:07:34;;;;;;;2.85;1.40;;;6.50;96.10;;;;;;3667173;31;20479;-70
2020/12/19 09:10:00;;;;;;;3.17;1.40;;;6.50;96.00;;;;;;3673477;32;20113;-70
2020/12/19 09:12:26;;;;;;;3.00;1.50;;;6.70;96.10;;;;;;3623574;39;20428;-70
2020/12/19 09:14:52;;;;;;;4.15;1.90;;;6.70;96.00;;;;;;3623492;39;20205;-70
2020/12/19 09:17:31;;;;;;;4.60;2.05;;;6.70;96.00;;;;;;3623516;39;20113;-70
2020/12/19 09:20:02;;;;;;;3.65;1.80;;;6.80;96.00;;;;;;3911349;31;20113;-70
2020/12/19 09:22:28;;;;;;;3.45;1.60;;;6.80;96.00;;;;;;3906740;31;20124;-70
2020/12/19 09:24:54;;;;;;;4.55;2.10;;;6.90;96.00;;;;;;3623508;39;20467;-70
2020/12/19 09:27:19;;;;;;;5.75;2.30;;;7.00;96.00;;;;;;3623367;39;20128;-70
2020/12/19 09:29:45;;;;;;;4.63;2.15;;;7.10;96.00;;;;;;3623391;39;20519;-70
2020/12/19 09:32:11;;;;;;;2.90;1.60;;;7.10;96.00;;;;;;3623321;39;20121;-70
2020/12/19 09:34:36;;;;;;;3.75;1.80;;;7.20;96.00;;;;;;3623364;39;20214;-70
2020/12/19 09:37:02;;;;;;;3.22;1.58;;;7.20;95.90;;;;;;3623094;39;20113;-70
2020/12/19 09:39:28;;;;;;;5.38;2.30;;;7.30;95.90;;;;;;3623179;39;20134;-70
2020/12/19 09:41:53;;;;;;;4.80;2.17;;;7.40;95.90;;;;;;3623323;39;20108;-70
2020/12/19 09:44:19;;;;;;;4.28;2.08;;;7.40;95.90;;;;;;3623446;39;20132;-70
2020/12/19 09:46:46;;;;;;;5.47;2.45;;;7.60;95.90;;;;;;3623172;39;20613;-70
2020/12/19 09:49:11;;;;;;;3.60;1.90;;;7.60;95.80;;;;;;3719760;31;20146;-70
2020/12/19 09:51:37;;;;;;;3.75;2.10;;;7.70;95.80;;;;;;3623123;39;20597;-70
2020/12/19 09:54:03;;;;;;;4.43;2.00;;;7.80;95.80;;;;;;3623196;39;20110;-71
2020/12/19 09:56:29;;;;;;;4.43;2.25;;;7.80;95.70;;;;;;3623382;39;20120;-70
2020/12/19 09:58:54;;;;;;;4.32;2.00;;;7.90;95.70;;;;;;3623362;39;20122;-70
2020/12/19 10:01:20;;;;;;;3.88;2.13;;;7.90;95.70;;;;;;3623302;39;20156;-70
2020/12/19 10:03:45;;;;;;;5.90;2.47;;;8.10;95.70;;;;;;3623257;39;20158;-70
2020/12/19 10:06:14;;;;;;;4.55;2.35;;;8.10;95.70;;;;;;3623147;39;20587;-70
2020/12/19 10:08:40;;;;;;;4.22;2.00;;;8.20;95.70;;;;;;3813352;31;20122;-70
2020/12/19 10:11:05;;;;;;;3.50;1.83;;;8.30;95.60;;;;;;3623077;39;20153;-70
2020/12/19 10:13:31;;;;;;;4.10;1.90;;;8.40;95.60;;;;;;3622955;39;20587;-70
2020/12/19 10:15:56;;;;;;;4.15;2.08;;;8.50;95.60;;;;;;3622965;39;20150;-70
2020/12/19 10:18:22;;;;;;;4.28;2.00;;;8.50;95.50;;;;;;3622836;39;20161;-69
2020/12/19 10:20:48;;;;;;;4.20;2.15;;;8.60;95.50;;;;;;3613286;39;20106;-69
2020/12/19 10:23:13;;;;;;;3.60;1.92;;;8.70;95.50;;;;;;3622928;39;20109;-71
2020/12/19 10:25:39;;;;;;;3.85;2.10;;;8.70;95.40;;;;;;3622856;39;20138;-70
2020/12/19 10:28:05;;;;;;;4.07;1.65;;;8.80;95.40;;;;;;3622806;39;20128;-72
2020/12/19 10:30:30;;;;;;;5.63;2.60;;;8.90;95.40;;;;;;3622891;39;20120;-71
2020/12/19 10:32:56;;;;;;;4.22;2.40;;;9.00;95.40;;;;;;3623043;39;20128;-74
2020/12/19 10:35:22;;;;;;;2.80;1.65;;;9.00;95.40;;;;;;3623043;39;20559;-70
2020/12/19 10:37:48;;;;;;;3.88;2.17;;;9.10;95.40;;;;;;3622777;39;20553;-71
2020/12/19 10:40:13;;;;;;;4.40;2.20;;;9.10;95.30;;;;;;3622678;39;20110;-71
2020/12/19 10:42:39;;;;;;;3.17;1.63;;;9.20;95.30;;;;;;3622712;39;20617;-71
2020/12/19 10:45:05;;;;;;;4.60;2.00;;;9.30;95.30;;;;;;3622614;39;20106;-76
2020/12/19 10:47:30;;;;;;;3.25;1.85;;;9.40;95.20;;;;;;3622708;39;20101;-71
2020/12/19 10:49:56;;;;;;;5.03;2.47;;;9.40;95.20;;;;;;3622620;39;20098;-70
2020/12/19 10:52:22;;;;;;;4.45;2.47;;;9.40;95.20;;;;;;3622529;39;20559;-73
2020/12/19 10:54:47;;;;;;;3.78;2.22;;;9.50;95.20;;;;;;3622699;39;20539;-71
2020/12/19 10:57:13;;;;;;;4.72;2.47;;;9.50;95.20;;;;;;3622541;39;20183;-71
2020/12/19 10:59:39;;;;;;;4.57;2.45;;;9.50;95.20;;;;;;3622619;39;20109;-70
2020/12/19 11:02:04;;;;;;;3.35;1.90;;;9.60;95.20;;;;;;3622645;39;20129;-71
2020/12/19 11:04:30;;;;;;;4.28;2.47;;;9.70;95.20;;;;;;3622640;39;20098;-71
2020/12/19 11:06:56;;;;;;;4.47;2.58;;;9.60;95.10;;;;;;3622582;39;20567;-71
2020/12/19 11:09:21;;;;;;;5.10;2.53;;;9.70;95.20;;;;;;3622528;39;20113;-71
2020/12/19 11:11:50;;;;;;;4.10;2.40;;;9.80;95.10;;;;;;3622488;39;20117;-70
2020/12/19 11:14:16;;;;;;;3.80;2.20;;;9.80;95.10;;;;;;3776229;32;20113;-71
2020/12/19 11:16:41;;;;;;;3.90;2.17;;;9.80;95.10;;;;;;3622968;39;20104;-72
2020/12/19 11:19:09;;;;;;;4.53;2.08;;;9.90;95.10;;;;;;3623191;39;20120;-71
2020/12/19 11:21:41;;;;;;;4.13;1.88;;;10.10;95.10;;;;;;3704007;31;20113;-71
2020/12/19 11:24:07;;;;;;;4.35;2.30;;;10.10;95.10;;;;;;3694274;31;20114;-71
2020/12/19 11:26:33;;;;;;;3.88;1.67;;;10.20;95.00;;;;;;3622422;39;20560;-71
2020/12/19 11:28:58;;;;;;;4.20;1.85;;;10.20;94.90;;;;;;3622540;39;20133;-71
2020/12/19 11:31:26;;;;;;;3.38;1.88;;;10.20;94.90;;;;;;3622447;39;20118;-71
2020/12/19 11:33:52;;;;;;;2.58;1.55;;;10.30;95.00;;;;;;3891010;31;20177;-71
2020/12/19 11:36:18;;;;;;;3.72;2.00;;;10.30;95.00;;;;;;3906990;31;20122;-71
2020/12/19 11:38:43;;;;;;;3.78;2.15;;;10.40;95.00;;;;;;3622267;39;20112;-70
2020/12/19 11:41:09;;;;;;;5.03;2.35;;;10.40;94.90;;;;;;3622329;39;20117;-71
2020/12/19 11:43:35;;;;;;;3.30;1.98;;;10.50;94.80;;;;;;3622249;39;20106;-71
2020/12/19 11:46:01;;;;;;;3.40;2.10;;;10.60;94.90;;;;;;3622236;39;20118;-71
2020/12/19 11:48:27;;;;;;;4.30;2.30;;;10.80;94.80;;;;;;3739782;31;20270;-71
2020/12/19 11:50:52;;;;;;;2.67;1.73;;;10.80;94.70;;;;;;3622243;39;20125;-71
2020/12/19 11:53:18;;;;;;;3.70;2.38;;;10.80;94.70;;;;;;3622222;39;20494;-71
2020/12/19 11:55:44;;;;;;;4.90;2.55;;;10.80;94.60;;;;;;3612580;39;20186;-72
2020/12/19 11:58:09;;;;;;;4.53;2.30;;;10.90;94.60;;;;;;3622229;39;20153;-71
2020/12/19 12:00:35;;;;;;;3.90;2.30;;;11.00;94.60;;;;;;3622218;39;20113;-71
2020/12/19 12:03:01;;;;;;;4.28;2.60;;;11.10;94.50;;;;;;3623542;39;20557;-71
2020/12/19 12:05:26;;;;;;;3.50;2.10;;;11.20;94.60;;;;;;3624031;39;20113;-73
2020/12/19 12:07:52;;;;;;;4.38;2.20;;;11.30;94.60;;;;;;3623859;39;20105;-71
2020/12/19 12:10:18;;;;;;;4.40;2.65;;;11.50;94.50;;;;;;3624009;39;20174;-71
2020/12/19 12:12:44;;;;;;;3.63;1.88;;;11.60;94.30;;;;;;3614123;39;20483;-71
2020/12/19 12:15:09;;;;;;;3.97;2.33;;;11.60;94.10;;;;;;3623920;39;20212;-71
2020/12/19 12:17:35;;;;;;;4.35;2.30;;;11.60;94.10;;;;;;3614157;39;20106;-71
2020/12/19 12:20:01;;;;;;;2.58;1.73;;;11.60;94.10;;;;;;3623838;39;20132;-70
2020/12/19 12:22:26;;;;;;;3.28;2.10;;;11.50;94.00;;;;;;3623683;39;20154;-70
2020/12/19 12:24:52;;;;;;;3.10;1.90;;;11.50;94.10;;;;;;3623655;39;20609;-70
2020/12/19 12:27:18;;;;;;;4.47;2.40;;;11.50;94.10;;;;;;3614036;39;20106;-71
2020/12/19 12:29:44;;;;;;;4.28;2.38;;;11.40;94.20;;;;;;3623875;39;20106;-72
2020/12/19 12:32:09;;;;;;;3.05;1.95;;;11.40;94.20;;;;;;3623916;39;20486;-70
2020/12/19 12:34:35;;;;;;;3.72;2.00;;;11.30;94.20;;;;;;3623782;39;20433;-70
2020/12/19 12:37:01;;;;;;;3.70;2.10;;;11.30;94.30;;;;;;3623785;39;20124;-70
2020/12/19 12:39:27;;;;;;;3.90;1.70;;;11.30;94.30;;;;;;3614088;39;20102;-70
2020/12/19 12:41:53;;;;;;;4.10;1.80;;;11.20;94.40;;;;;;3614164;39;20118;-69
2020/12/19 12:44:18;;;;;;;3.40;2.00;;;11.20;94.40;;;;;;3623701;39;20113;-71
2020/12/19 12:46:44;;;;;;;3.15;1.83;;;11.20;94.40;;;;;;3623702;39;20112;-70
2020/12/19 12:49:10;;;;;;;3.75;1.90;;;11.30;94.70;;;;;;3623746;39;20113;-70
2020/12/19 12:51:35;;;;;;;3.35;1.92;;;11.20;94.40;;;;;;3623659;39;20190;-69
2020/12/19 12:54:01;;;;;;;2.25;1.50;;;11.20;94.30;;;;;;3623572;39;20592;-70
2020/12/19 12:56:27;;;;;;;3.08;2.08;;;11.30;94.40;;;;;;3623631;39;20110;-70